Time;durP1;ratioP1;P1;durP2;ratioP2;P2;SDS_P1;SDS_P2;PMS_P1;PMS_P2;Temp;Humidity;BMP_temperature;BMP_pressure;BME280_temperature;BME280_humidity;BME280_pressure;Samples;Min_cycle;Max_cycle;Signal;HPM_P1;HPM_P2
2022/02/25 00:02:13;;;;;;;2.40;1.10;;;5.00;99.90;;;;;;5135175;27;20031;-68
2022/02/25 00:04:39;;;;;;;4.10;0.80;;;5.00;99.90;;;;;;5136666;27;20076;-69
2022/02/25 00:07:05;;;;;;;3.65;1.42;;;5.00;99.90;;;;;;5138610;27;20110;-69
2022/02/25 00:09:31;;;;;;;2.00;1.10;;;4.90;99.90;;;;;;5137741;27;20030;-69
2022/02/25 00:11:56;;;;;;;3.05;0.88;;;4.90;99.90;;;;;;5135859;27;20023;-68
2022/02/25 00:14:22;;;;;;;3.28;0.90;;;4.80;99.90;;;;;;5136572;27;20027;-67
2022/02/25 00:16:51;;;;;;;1.65;0.73;;;4.80;99.90;;;;;;5136681;27;20471;-69
2022/02/25 00:19:16;;;;;;;3.17;0.80;;;4.80;99.90;;;;;;5135700;27;20023;-69
2022/02/25 00:21:42;;;;;;;2.33;0.70;;;4.80;99.90;;;;;;5137321;27;20493;-69
2022/02/25 00:24:08;;;;;;;5.32;0.90;;;4.80;99.90;;;;;;5135651;27;20028;-69
2022/02/25 00:26:35;;;;;;;2.37;0.80;;;4.70;99.90;;;;;;5135386;27;20019;-69
2022/02/25 00:29:02;;;;;;;7.82;1.00;;;4.70;99.90;;;;;;5135987;27;20290;-68
2022/02/25 00:31:28;;;;;;;3.15;0.85;;;4.70;99.90;;;;;;5134939;27;20458;-69
2022/02/25 00:33:53;;;;;;;3.20;0.80;;;4.60;99.90;;;;;;5135230;27;20020;-68
2022/02/25 00:36:19;;;;;;;2.70;0.63;;;4.60;99.90;;;;;;5136112;27;20015;-68
2022/02/25 00:38:45;;;;;;;2.43;0.67;;;4.60;99.90;;;;;;5135038;27;20476;-69
2022/02/25 00:41:10;;;;;;;1.70;0.60;;;4.50;99.90;;;;;;5135625;27;20030;-69
2022/02/25 00:43:36;;;;;;;4.27;1.00;;;4.50;99.90;;;;;;5135529;27;20027;-68
2022/02/25 00:46:02;;;;;;;3.77;1.00;;;4.50;99.90;;;;;;5136085;27;20037;-68
2022/02/25 00:48:27;;;;;;;1.77;0.63;;;4.50;99.90;;;;;;5135536;27;20023;-69
2022/02/25 00:50:53;;;;;;;2.00;0.87;;;4.50;99.90;;;;;;5135031;27;20022;-69
2022/02/25 00:53:19;;;;;;;2.77;0.77;;;4.40;99.90;;;;;;5134897;27;20125;-68
2022/02/25 00:55:44;;;;;;;3.67;0.93;;;4.40;99.90;;;;;;5135178;27;20427;-68
2022/02/25 00:58:10;;;;;;;3.93;1.10;;;4.40;99.90;;;;;;5135049;27;20026;-68
2022/02/25 01:00:35;;;;;;;2.97;1.07;;;4.40;99.90;;;;;;5135680;27;20023;-68
2022/02/25 01:03:01;;;;;;;1.87;0.87;;;4.40;99.90;;;;;;5136940;27;20028;-68
2022/02/25 01:05:27;;;;;;;2.83;0.80;;;4.40;99.90;;;;;;5135023;27;20023;-69
2022/02/25 01:07:52;;;;;;;5.47;0.80;;;4.40;99.90;;;;;;5136644;27;20030;-68
2022/02/25 01:10:18;;;;;;;9.57;1.20;;;4.40;99.90;;;;;;5134819;27;20027;-68
2022/02/25 01:12:46;;;;;;;3.17;1.75;;;4.40;99.90;;;;;;5138181;27;20026;-69
2022/02/25 01:15:13;;;;;;;5.07;0.80;;;4.40;99.90;;;;;;5136668;27;20479;-69
2022/02/25 01:17:39;;;;;;;4.05;0.93;;;4.40;99.90;;;;;;5133928;27;20071;-69
2022/02/25 01:20:06;;;;;;;3.85;0.80;;;4.40;99.90;;;;;;5135121;27;20047;-71
2022/02/25 01:22:33;;;;;;;6.78;1.10;;;4.30;99.90;;;;;;5135212;27;20031;-70
2022/02/25 01:24:58;;;;;;;4.40;0.93;;;4.20;99.90;;;;;;5134179;27;20172;-70
2022/02/25 01:27:24;;;;;;;5.27;0.80;;;4.20;99.90;;;;;;5133854;27;20495;-70
2022/02/25 01:29:50;;;;;;;5.20;1.00;;;4.20;99.90;;;;;;5137717;27;20276;-70
2022/02/25 01:32:16;;;;;;;4.50;1.50;;;4.10;99.90;;;;;;5134653;27;20023;-70
2022/02/25 01:34:42;;;;;;;1.57;0.67;;;4.10;99.90;;;;;;5133868;27;20268;-70
2022/02/25 01:37:08;;;;;;;4.40;0.90;;;4.10;99.90;;;;;;5133666;27;20437;-70
2022/02/25 01:39:33;;;;;;;3.50;1.65;;;4.10;99.90;;;;;;5133245;27;20023;-71
2022/02/25 01:41:59;;;;;;;4.32;0.95;;;4.00;99.90;;;;;;5133802;27;20105;-69
2022/02/25 01:44:29;;;;;;;2.90;0.50;;;4.10;99.90;;;;;;5134862;27;20476;-68
2022/02/25 01:47:04;;;;;;;8.75;1.13;;;4.00;99.90;;;;;;5133308;27;20072;-70
2022/02/25 01:49:31;;;;;;;2.95;0.93;;;3.90;99.90;;;;;;5134969;27;20449;-69
2022/02/25 01:51:58;;;;;;;;;;;3.90;99.90;;;;;;5133693;27;20019;-69
2022/02/25 01:54:25;;;;;;;2.75;0.50;;;4.00;99.90;;;;;;5134537;27;19928;-70
2022/02/25 01:56:53;;;;;;;5.07;0.80;;;4.00;99.90;;;;;;5134533;27;20019;-69
2022/02/25 01:59:18;;;;;;;3.45;1.15;;;4.00;99.90;;;;;;5133182;27;20053;-69
2022/02/25 02:01:44;;;;;;;6.00;0.77;;;4.00;99.90;;;;;;5134535;27;20019;-70
2022/02/25 02:04:10;;;;;;;4.65;0.95;;;3.90;99.90;;;;;;5134301;27;20253;-70
2022/02/25 02:06:37;;;;;;;2.95;0.77;;;3.90;99.90;;;;;;5133107;27;20121;-70
2022/02/25 02:09:07;;;;;;;3.28;0.77;;;3.80;99.90;;;;;;5133002;27;20030;-70
2022/02/25 02:11:42;;;;;;;2.65;0.68;;;3.80;99.90;;;;;;5132989;27;20118;-70
2022/02/25 02:14:12;;;;;;;2.55;0.93;;;3.80;99.90;;;;;;5132874;27;20062;-69
2022/02/25 02:16:41;;;;;;;2.17;0.60;;;3.70;99.90;;;;;;5132994;27;20023;-69
2022/02/25 02:19:07;;;;;;;2.40;1.00;;;3.60;99.90;;;;;;5132887;27;20110;-69
2022/02/25 02:21:37;;;;;;;6.22;1.02;;;3.60;99.90;;;;;;5132858;28;20113;-69
2022/02/25 02:24:03;;;;;;;5.22;0.80;;;3.60;99.90;;;;;;5134155;28;20084;-69
2022/02/25 02:26:30;;;;;;;3.70;1.00;;;3.60;99.90;;;;;;5134257;27;20425;-69
2022/02/25 02:28:56;;;;;;;;;;;3.50;99.90;;;;;;5134827;28;20292;-69
2022/02/25 02:31:21;;;;;;;4.97;0.90;;;3.50;99.90;;;;;;5133025;28;20339;-69
2022/02/25 02:33:47;;;;;;;5.35;1.13;;;3.50;99.90;;;;;;5133700;28;20065;-70
2022/02/25 02:36:13;;;;;;;4.03;0.90;;;3.50;99.90;;;;;;5135144;27;20032;-69
2022/02/25 02:38:39;;;;;;;5.33;1.20;;;3.40;99.90;;;;;;5132776;28;20425;-69
2022/02/25 02:41:06;;;;;;;4.00;0.80;;;3.40;99.90;;;;;;5134148;27;20027;-69
2022/02/25 02:43:33;;;;;;;4.80;0.80;;;3.40;99.90;;;;;;5133953;27;20059;-69
2022/02/25 02:45:59;;;;;;;;;;;3.40;99.90;;;;;;5133133;28;20027;-69
2022/02/25 02:48:25;;;;;;;5.60;1.77;;;3.40;99.90;;;;;;5132720;28;20359;-69
2022/02/25 02:50:50;;;;;;;7.75;1.02;;;3.40;99.90;;;;;;5132757;27;20368;-69
2022/02/25 02:53:16;;;;;;;6.40;1.93;;;3.40;99.90;;;;;;5137972;27;20030;-70
2022/02/25 02:55:43;;;;;;;7.80;1.30;;;3.40;99.90;;;;;;5138845;27;20451;-70
2022/02/25 02:58:09;;;;;;;2.88;0.80;;;3.40;99.90;;;;;;5138678;27;20094;-70
2022/02/25 03:00:35;;;;;;;1.97;1.17;;;3.40;99.90;;;;;;5136796;27;20168;-69
2022/02/25 03:03:01;;;;;;;3.53;0.90;;;3.30;99.90;;;;;;5137664;27;20265;-69
2022/02/25 03:05:26;;;;;;;2.83;0.63;;;3.40;99.90;;;;;;5137689;27;20451;-70
2022/02/25 03:07:53;;;;;;;4.35;1.10;;;3.40;99.90;;;;;;5136265;27;20035;-69
2022/02/25 03:10:19;;;;;;;6.53;1.00;;;3.30;99.90;;;;;;5136201;27;20023;-69
2022/02/25 03:12:44;;;;;;;7.15;1.35;;;3.30;99.90;;;;;;5137538;27;20087;-69
2022/02/25 03:15:12;;;;;;;2.83;0.77;;;3.30;99.90;;;;;;5137534;27;20110;-69
2022/02/25 03:17:38;;;;;;;5.55;1.92;;;3.30;99.90;;;;;;5136127;27;20023;-69
2022/02/25 03:20:09;;;;;;;6.03;1.10;;;3.30;99.90;;;;;;5136072;27;20031;-69
2022/02/25 03:22:34;;;;;;;6.35;1.27;;;3.30;99.90;;;;;;5135886;27;20030;-69
2022/02/25 03:25:01;;;;;;;8.37;1.10;;;3.30;99.90;;;;;;5136118;27;20075;-70
2022/02/25 03:27:28;;;;;;;;;;;3.30;99.90;;;;;;5137829;27;20023;-69
2022/02/25 03:29:54;;;;;;;5.78;1.40;;;3.20;99.90;;;;;;5137475;27;19907;-69
2022/02/25 03:32:21;;;;;;;5.03;0.90;;;3.20;99.90;;;;;;5137115;27;20033;-69
2022/02/25 03:34:48;;;;;;;6.35;1.20;;;3.20;99.90;;;;;;5138017;27;20054;-70
2022/02/25 03:37:14;;;;;;;5.60;1.00;;;3.20;99.90;;;;;;5137659;27;20080;-69
2022/02/25 03:39:39;;;;;;;7.82;2.47;;;3.20;99.90;;;;;;5137391;27;20375;-69
2022/02/25 03:42:06;;;;;;;6.22;1.30;;;3.20;99.90;;;;;;5135589;27;20023;-68
2022/02/25 03:44:32;;;;;;;7.25;1.42;;;3.20;99.90;;;;;;5135723;27;20106;-69
2022/02/25 03:46:57;;;;;;;8.82;1.60;;;3.20;99.90;;;;;;5136202;27;20491;-69
2022/02/25 03:49:23;;;;;;;4.67;1.27;;;3.20;99.90;;;;;;5135418;27;20037;-69
2022/02/25 03:51:49;;;;;;;4.33;1.03;;;3.20;99.90;;;;;;5135612;27;20114;-69
2022/02/25 03:54:15;;;;;;;11.87;3.27;;;3.20;99.90;;;;;;5135820;27;20026;-69
2022/02/25 03:56:40;;;;;;;8.65;2.80;;;3.20;99.90;;;;;;5137103;27;20285;-69
2022/02/25 03:59:06;;;;;;;7.50;1.43;;;3.10;99.90;;;;;;5135532;27;20058;-69
2022/02/25 04:01:32;;;;;;;6.53;1.17;;;3.20;99.90;;;;;;5136764;27;20263;-69
2022/02/25 04:03:58;;;;;;;6.47;1.35;;;3.10;99.90;;;;;;5135893;27;20023;-69
2022/02/25 04:06:25;;;;;;;7.93;1.30;;;3.20;99.90;;;;;;5137419;27;20032;-69
2022/02/25 04:08:51;;;;;;;8.55;1.60;;;3.10;99.90;;;;;;5136494;27;20126;-69
2022/02/25 04:11:18;;;;;;;10.18;1.30;;;3.10;99.90;;;;;;5136438;27;20106;-69
2022/02/25 04:13:44;;;;;;;8.63;2.50;;;3.10;99.90;;;;;;5135855;27;20035;-70
2022/02/25 04:16:10;;;;;;;11.03;1.77;;;3.10;99.90;;;;;;5138797;27;20019;-70
2022/02/25 04:18:36;;;;;;;13.77;1.77;;;3.10;99.90;;;;;;5137746;27;20031;-69
2022/02/25 04:21:01;;;;;;;9.93;1.57;;;3.20;99.90;;;;;;5136376;27;20024;-69
2022/02/25 04:23:27;;;;;;;15.30;1.93;;;3.10;99.90;;;;;;5134955;27;20034;-69
2022/02/25 04:25:53;;;;;;;9.07;1.50;;;3.10;99.90;;;;;;5136477;27;20023;-69
2022/02/25 04:28:18;;;;;;;8.23;2.07;;;3.10;99.90;;;;;;5135238;27;20019;-69
2022/02/25 04:30:46;;;;;;;3.88;1.30;;;3.10;99.90;;;;;;5135285;27;20019;-69
2022/02/25 04:33:12;;;;;;;9.82;1.73;;;3.20;99.90;;;;;;5135012;27;20031;-69
2022/02/25 04:35:38;;;;;;;10.53;1.43;;;3.10;99.90;;;;;;5136248;27;20072;-69
2022/02/25 04:38:04;;;;;;;4.20;1.05;;;3.10;99.90;;;;;;5135977;27;20030;-69
2022/02/25 04:40:30;;;;;;;8.68;1.83;;;3.20;99.90;;;;;;5136083;27;20102;-69
2022/02/25 04:42:56;;;;;;;14.68;1.77;;;3.20;99.90;;;;;;5134614;27;20055;-69
2022/02/25 04:45:22;;;;;;;7.35;1.35;;;3.20;99.90;;;;;;5136011;27;20471;-69
2022/02/25 04:47:48;;;;;;;6.05;1.48;;;3.20;99.90;;;;;;5135766;27;20332;-69
2022/02/25 04:50:15;;;;;;;7.15;1.20;;;3.20;99.90;;;;;;5134458;27;20095;-69
2022/02/25 04:52:41;;;;;;;;;;;3.10;99.90;;;;;;5136091;27;20578;-69
2022/02/25 04:55:08;;;;;;;6.05;1.55;;;3.10;99.90;;;;;;5134281;27;19997;-69
2022/02/25 04:57:33;;;;;;;8.73;1.25;;;3.10;99.90;;;;;;5135717;27;20468;-69
2022/02/25 04:59:59;;;;;;;7.77;1.63;;;3.10;99.90;;;;;;5137500;27;20101;-70
2022/02/25 05:02:25;;;;;;;13.00;2.27;;;3.10;99.90;;;;;;5137446;27;20023;-70
2022/02/25 05:04:50;;;;;;;5.97;1.73;;;3.10;99.90;;;;;;5135403;27;20383;-69
2022/02/25 05:07:16;;;;;;;7.30;1.73;;;3.10;99.90;;;;;;5135330;27;20038;-70
2022/02/25 05:09:42;;;;;;;6.43;1.47;;;3.10;99.90;;;;;;5135190;27;20023;-70
2022/02/25 05:12:08;;;;;;;13.07;1.90;;;3.10;99.90;;;;;;5135278;27;20495;-69
2022/02/25 05:22:47;;;;;;;7.22;1.50;;;3.20;99.90;;;;;;5135418;27;20034;-68
2022/02/25 05:25:13;;;;;;;14.90;2.13;;;3.20;99.90;;;;;;5134937;27;20023;-68
2022/02/25 05:27:38;;;;;;;9.67;1.67;;;3.20;99.90;;;;;;5137908;27;20502;-68
2022/02/25 05:30:04;;;;;;;7.03;1.47;;;3.10;99.90;;;;;;5145278;27;20500;-68
2022/02/25 05:32:30;;;;;;;8.52;1.73;;;3.10;99.90;;;;;;5140985;27;20473;-68
2022/02/25 05:34:58;;;;;;;8.60;1.67;;;3.10;99.90;;;;;;5133139;27;20118;-67
2022/02/25 05:37:24;;;;;;;9.88;1.70;;;3.10;99.90;;;;;;5135200;27;20076;-68
2022/02/25 05:39:50;;;;;;;10.63;1.67;;;3.10;99.90;;;;;;5134320;27;20031;-67
2022/02/25 05:42:15;;;;;;;6.60;1.50;;;3.10;99.90;;;;;;5135516;27;20463;-67
2022/02/25 05:44:41;;;;;;;8.10;2.37;;;3.10;99.90;;;;;;5135201;27;20031;-70
2022/02/25 05:47:07;;;;;;;10.50;2.23;;;3.20;99.90;;;;;;5133250;27;20038;-69
2022/02/25 05:49:32;;;;;;;7.77;1.93;;;3.10;99.90;;;;;;5134912;27;20038;-71
2022/02/25 05:51:58;;;;;;;8.93;2.47;;;3.10;99.90;;;;;;5133345;27;20027;-66
2022/02/25 05:54:24;;;;;;;7.80;1.73;;;3.10;99.90;;;;;;5133246;27;20165;-66
2022/02/25 05:56:49;;;;;;;14.17;1.97;;;3.10;99.90;;;;;;5133526;27;20172;-67
2022/02/25 05:59:15;;;;;;;8.57;2.03;;;3.10;99.90;;;;;;5134886;27;20479;-67
2022/02/25 06:01:40;;;;;;;10.07;2.30;;;3.10;99.90;;;;;;5133188;27;20015;-68
2022/02/25 06:04:06;;;;;;;11.07;2.47;;;3.00;99.90;;;;;;5133363;27;20425;-66
2022/02/25 06:06:32;;;;;;;12.63;2.83;;;3.10;99.90;;;;;;5134578;27;20097;-67
2022/02/25 06:08:58;;;;;;;7.80;1.80;;;3.10;99.90;;;;;;5132986;27;20294;-66
2022/02/25 06:11:24;;;;;;;10.65;2.33;;;3.10;99.90;;;;;;5134582;27;20373;-66
2022/02/25 06:13:49;;;;;;;10.83;1.90;;;3.10;99.90;;;;;;5134630;27;20110;-66
2022/02/25 06:16:15;;;;;;;10.83;2.20;;;3.10;99.90;;;;;;5134675;27;20091;-66
2022/02/25 06:18:42;;;;;;;10.33;2.10;;;3.10;99.90;;;;;;5134336;27;20030;-69
2022/02/25 06:21:08;;;;;;;7.55;1.75;;;3.10;99.90;;;;;;5133281;27;20023;-67
2022/02/25 06:23:34;;;;;;;10.05;2.05;;;3.10;99.90;;;;;;5133989;27;20419;-68
2022/02/25 06:26:00;;;;;;;11.07;1.77;;;3.20;99.90;;;;;;5135843;27;20455;-68
2022/02/25 06:28:26;;;;;;;16.42;3.20;;;3.20;99.90;;;;;;5141068;27;20031;-68
2022/02/25 06:30:53;;;;;;;12.63;2.50;;;3.20;99.90;;;;;;5140804;27;20050;-68
2022/02/25 06:33:19;;;;;;;9.30;1.88;;;3.20;99.90;;;;;;5139312;27;20083;-68
2022/02/25 06:35:44;;;;;;;6.23;1.63;;;3.20;99.90;;;;;;5140776;27;20463;-65
2022/02/25 06:38:10;;;;;;;10.10;2.03;;;3.20;99.90;;;;;;5141159;27;20378;-68
2022/02/25 06:40:36;;;;;;;8.63;1.70;;;3.20;99.90;;;;;;5140692;27;20023;-68
2022/02/25 06:43:01;;;;;;;6.47;1.70;;;3.30;99.90;;;;;;5140776;27;20023;-67
2022/02/25 06:45:27;;;;;;;6.63;1.50;;;3.30;99.90;;;;;;5140708;27;20110;-67
2022/02/25 06:47:53;;;;;;;10.67;2.30;;;3.30;99.90;;;;;;5139385;27;20030;-67
2022/02/25 06:50:19;;;;;;;9.45;1.70;;;3.30;99.90;;;;;;5140629;27;20281;-68
2022/02/25 06:52:45;;;;;;;13.35;2.10;;;3.20;99.90;;;;;;5139404;27;20023;-67
2022/02/25 06:55:13;;;;;;;9.45;1.67;;;3.40;99.90;;;;;;5140331;27;20020;-69
2022/02/25 06:57:43;;;;;;;8.02;2.15;;;3.40;99.90;;;;;;5139187;27;20027;-69
2022/02/25 07:00:13;;;;;;;9.48;1.60;;;3.40;99.90;;;;;;5139597;27;20027;-69
2022/02/25 07:02:39;;;;;;;9.40;1.88;;;3.40;99.90;;;;;;5140636;27;20019;-68
2022/02/25 07:05:05;;;;;;;9.25;1.52;;;3.40;99.90;;;;;;5140850;27;20479;-68
2022/02/25 07:07:31;;;;;;;14.15;2.33;;;3.40;99.90;;;;;;5139451;27;20038;-68
2022/02/25 07:09:58;;;;;;;10.02;2.95;;;3.50;99.90;;;;;;5139830;27;20038;-68
2022/02/25 07:12:25;;;;;;;9.75;1.73;;;3.50;99.90;;;;;;5140886;27;20031;-69
2022/02/25 07:14:51;;;;;;;6.88;1.80;;;3.50;99.90;;;;;;5140927;27;20061;-69
2022/02/25 07:17:17;;;;;;;8.70;1.60;;;3.60;99.90;;;;;;5139123;27;20015;-68
2022/02/25 07:19:42;;;;;;;9.33;1.83;;;3.80;99.90;;;;;;5139081;27;20462;-68
2022/02/25 07:22:08;;;;;;;7.73;2.00;;;3.70;99.90;;;;;;5140952;27;20440;-69
2022/02/25 07:24:34;;;;;;;8.07;2.13;;;3.90;99.90;;;;;;5139074;27;20071;-69
2022/02/25 07:26:59;;;;;;;10.53;1.70;;;4.00;99.90;;;;;;5141260;27;20019;-69
2022/02/25 07:29:25;;;;;;;11.27;1.67;;;4.10;99.90;;;;;;5140981;27;20451;-69
2022/02/25 07:31:50;;;;;;;8.00;1.90;;;4.10;99.90;;;;;;5139502;27;20035;-70
2022/02/25 07:34:16;;;;;;;11.20;2.13;;;4.10;99.90;;;;;;5142160;27;20031;-70
2022/02/25 07:36:42;;;;;;;10.23;2.13;;;4.30;99.90;;;;;;5142047;27;20379;-70
2022/02/25 07:39:07;;;;;;;11.33;1.93;;;4.40;99.90;;;;;;5134904;27;20030;-69
2022/02/25 07:41:33;;;;;;;10.53;1.97;;;4.30;99.90;;;;;;5135945;27;20027;-68
2022/02/25 07:43:58;;;;;;;11.30;2.17;;;4.30;99.90;;;;;;5137264;27;20129;-69
2022/02/25 07:46:24;;;;;;;7.33;1.90;;;4.30;99.90;;;;;;5135972;27;20437;-68
2022/02/25 07:48:50;;;;;;;7.17;1.73;;;4.30;99.90;;;;;;5137638;27;20053;-70
2022/02/25 07:51:15;;;;;;;11.77;2.47;;;4.30;99.90;;;;;;5135897;27;20026;-70
2022/02/25 07:53:41;;;;;;;12.20;2.17;;;4.40;99.90;;;;;;5136840;27;20015;-69
2022/02/25 07:56:07;;;;;;;11.00;1.98;;;4.40;99.90;;;;;;5135585;27;20483;-68
2022/02/25 07:58:32;;;;;;;6.80;1.90;;;4.50;99.90;;;;;;5137015;27;20051;-68
2022/02/25 08:00:59;;;;;;;8.77;2.20;;;4.60;99.90;;;;;;5135451;27;20059;-69
2022/02/25 08:03:25;;;;;;;;;;;4.60;99.90;;;;;;5136025;27;20030;-68
2022/02/25 08:05:50;;;;;;;11.10;2.28;;;4.60;99.90;;;;;;5136733;27;19904;-69
2022/02/25 08:08:16;;;;;;;7.87;2.03;;;4.60;99.90;;;;;;5135299;27;20088;-69
2022/02/25 08:10:42;;;;;;;6.20;1.43;;;4.70;99.90;;;;;;5136712;27;20031;-68
2022/02/25 08:13:12;;;;;;;8.73;1.90;;;4.80;99.90;;;;;;5136324;27;20284;-69
2022/02/25 08:15:37;;;;;;;6.45;1.90;;;4.90;99.90;;;;;;5136698;27;20023;-68
2022/02/25 08:18:06;;;;;;;8.50;2.47;;;5.00;99.90;;;;;;5136400;27;20027;-69
2022/02/25 08:20:33;;;;;;;8.57;2.10;;;5.00;99.90;;;;;;5136562;27;20019;-68
2022/02/25 08:23:01;;;;;;;11.00;2.33;;;4.90;99.90;;;;;;5134860;27;20063;-68
2022/02/25 08:25:28;;;;;;;12.57;2.50;;;4.80;99.90;;;;;;5136236;27;20030;-69
2022/02/25 08:27:54;;;;;;;7.97;1.85;;;4.70;99.90;;;;;;5136146;27;20098;-69
2022/02/25 08:30:20;;;;;;;7.85;2.15;;;4.80;99.90;;;;;;5134869;27;20436;-71
2022/02/25 08:32:48;;;;;;;9.07;2.47;;;4.90;99.90;;;;;;5136160;27;20022;-67
2022/02/25 08:35:15;;;;;;;9.98;2.50;;;4.90;99.90;;;;;;5134476;27;20050;-69
2022/02/25 08:37:41;;;;;;;10.25;2.55;;;5.10;99.90;;;;;;5135943;27;20091;-68
2022/02/25 08:40:08;;;;;;;9.98;1.88;;;5.10;99.90;;;;;;5135713;27;20068;-69
2022/02/25 08:42:35;;;;;;;8.55;2.42;;;5.10;99.90;;;;;;5134393;27;20079;-69
2022/02/25 08:45:03;;;;;;;9.52;2.33;;;5.20;99.90;;;;;;5134484;27;20026;-69
2022/02/25 08:47:29;;;;;;;12.73;3.22;;;5.20;99.90;;;;;;5134574;27;20092;-69
2022/02/25 08:49:54;;;;;;;22.13;4.13;;;5.20;99.90;;;;;;5135138;27;20421;-69
2022/02/25 08:52:20;;;;;;;9.37;1.70;;;5.20;99.90;;;;;;5135750;27;20030;-68
2022/02/25 08:54:45;;;;;;;8.23;1.80;;;5.30;99.90;;;;;;5135611;27;20027;-68
2022/02/25 08:57:11;;;;;;;12.43;2.40;;;5.40;99.90;;;;;;5135580;27;20631;-68
2022/02/25 08:59:38;;;;;;;9.93;1.90;;;5.40;99.90;;;;;;5134360;27;20023;-68
2022/02/25 09:02:04;;;;;;;15.18;3.63;;;5.50;99.90;;;;;;5135312;27;20027;-68
2022/02/25 09:04:30;;;;;;;6.78;1.50;;;5.50;99.90;;;;;;5136040;27;20023;-68
2022/02/25 09:06:56;;;;;;;8.98;2.20;;;5.60;99.90;;;;;;5134016;27;20042;-68
2022/02/25 09:09:21;;;;;;;10.43;2.35;;;5.70;99.90;;;;;;5133962;27;20134;-68
2022/02/25 09:11:47;;;;;;;10.20;2.17;;;5.80;99.90;;;;;;5135252;27;20510;-68
2022/02/25 09:14:13;;;;;;;7.90;1.90;;;5.80;99.90;;;;;;5135527;27;20041;-69
2022/02/25 09:16:39;;;;;;;12.50;1.80;;;5.80;99.90;;;;;;5134143;27;20535;-68
2022/02/25 09:19:07;;;;;;;12.23;2.55;;;5.90;99.90;;;;;;5135069;27;20080;-68
2022/02/25 09:21:33;;;;;;;13.23;2.25;;;6.00;99.90;;;;;;5135189;27;20030;-69
2022/02/25 09:23:58;;;;;;;8.32;1.83;;;6.10;99.90;;;;;;5133642;27;20052;-69
2022/02/25 09:26:24;;;;;;;7.97;2.10;;;6.30;99.90;;;;;;5135074;27;20027;-69
2022/02/25 09:28:50;;;;;;;8.10;1.87;;;6.30;99.90;;;;;;5134066;27;20122;-68
2022/02/25 09:31:16;;;;;;;9.50;1.80;;;6.80;99.90;;;;;;5133734;27;20027;-68
2022/02/25 09:33:42;;;;;;;8.00;1.57;;;8.30;99.90;;;;;;5133251;27;20019;-68
2022/02/25 09:36:08;;;;;;;9.60;2.42;;;10.00;99.90;;;;;;5134743;27;20026;-68
2022/02/25 09:38:35;;;;;;;11.15;2.00;;;10.90;97.10;;;;;;5133276;27;20023;-68
2022/02/25 09:41:01;;;;;;;11.65;2.40;;;11.30;95.80;;;;;;5133587;27;20027;-68
2022/02/25 09:43:29;;;;;;;12.93;2.53;;;11.40;95.20;;;;;;5132996;27;20027;-68
2022/02/25 09:45:55;;;;;;;6.68;2.03;;;11.40;94.30;;;;;;5134589;27;20023;-68
2022/02/25 09:48:21;;;;;;;12.82;2.25;;;12.00;93.30;;;;;;5133359;27;20019;-68
2022/02/25 09:50:51;;;;;;;7.32;2.10;;;12.00;92.80;;;;;;5133132;27;20029;-68
2022/02/25 09:53:17;;;;;;;7.72;2.00;;;11.90;92.70;;;;;;5133633;27;20011;-67
2022/02/25 09:55:43;;;;;;;10.65;2.38;;;12.10;92.40;;;;;;5134275;27;20511;-68
2022/02/25 09:58:09;;;;;;;9.57;2.50;;;12.30;91.70;;;;;;5133028;27;20054;-69
2022/02/25 10:00:39;;;;;;;10.75;2.28;;;12.30;91.20;;;;;;5133586;27;20029;-69
2022/02/25 10:03:07;;;;;;;5.72;2.08;;;13.00;90.10;;;;;;5134041;27;20031;-69
2022/02/25 10:05:34;;;;;;;6.28;2.08;;;14.10;85.60;;;;;;5134313;27;20024;-69
2022/02/25 10:08:17;;;;;;;13.30;2.30;;;14.50;83.00;;;;;;5134380;27;20432;-68
2022/02/25 10:10:47;;;;;;;8.18;1.92;;;14.00;81.70;;;;;;5134148;27;20023;-68
2022/02/25 10:13:17;;;;;;;9.45;2.17;;;12.70;86.60;;;;;;5132572;27;20051;-68
2022/02/25 10:15:44;;;;;;;9.38;2.00;;;12.50;89.40;;;;;;5134292;27;20023;-68
2022/02/25 10:18:14;;;;;;;9.70;2.28;;;13.80;85.80;;;;;;5134112;27;20506;-69
2022/02/25 10:20:40;;;;;;;6.13;2.30;;;15.40;79.40;;;;;;5134231;27;20027;-69
2022/02/25 10:23:23;;;;;;;10.27;2.45;;;17.00;73.80;;;;;;5132702;27;20027;-69
2022/02/25 10:25:49;;;;;;;11.00;2.72;;;17.10;69.20;;;;;;5134140;27;20023;-70
2022/02/25 10:28:25;;;;;;;6.25;1.90;;;17.20;68.20;;;;;;5132863;28;20498;-71
2022/02/25 10:31:13;;;;;;;8.18;2.22;;;16.50;68.80;;;;;;5132734;28;20091;-69
2022/02/25 10:33:41;;;;;;;10.13;2.70;;;15.30;71.20;;;;;;5132889;28;20546;-70
2022/02/25 10:36:06;;;;;;;8.48;2.33;;;15.40;72.00;;;;;;5134435;27;20062;-70
2022/02/25 10:38:37;;;;;;;11.95;2.30;;;15.40;70.40;;;;;;5134233;27;20054;-70
2022/02/25 10:41:04;;;;;;;6.55;2.33;;;15.70;71.20;;;;;;5134403;27;20035;-72
2022/02/25 10:43:30;;;;;;;9.10;2.88;;;16.20;70.20;;;;;;5132579;28;20456;-71
2022/02/25 10:46:11;;;;;;;7.25;2.10;;;17.20;68.20;;;;;;5134215;27;20459;-70
2022/02/25 10:48:37;;;;;;;6.18;1.98;;;17.60;66.00;;;;;;5133851;27;20110;-71
2022/02/25 10:51:07;;;;;;;6.05;2.33;;;15.90;68.80;;;;;;5132521;28;20588;-71
2022/02/25 10:53:35;;;;;;;7.50;2.53;;;14.30;72.60;;;;;;5132087;28;20479;-72
2022/02/25 10:56:11;;;;;;;8.23;2.70;;;12.80;78.20;;;;;;5133481;27;20054;-70
2022/02/25 10:58:43;;;;;;;9.20;1.98;;;12.40;81.90;;;;;;5135168;27;20023;-69
2022/02/25 11:01:11;;;;;;;7.60;1.55;;;11.90;84.90;;;;;;5136979;27;20027;-69
2022/02/25 11:03:37;;;;;;;9.25;1.45;;;12.00;85.10;;;;;;5134055;28;20406;-69
2022/02/25 11:06:12;;;;;;;8.65;2.30;;;12.30;83.50;;;;;;5133365;28;20031;-70
2022/02/25 11:08:39;;;;;;;8.32;2.42;;;12.20;84.70;;;;;;5136085;28;20080;-72
2022/02/25 11:11:05;;;;;;;6.43;1.60;;;11.80;86.00;;;;;;5134281;28;20558;-71
2022/02/25 11:13:32;;;;;;;;;;;11.30;88.00;;;;;;5138526;27;20059;-71
2022/02/25 11:15:58;;;;;;;9.73;1.63;;;10.90;89.60;;;;;;5136915;27;19944;-70
2022/02/25 11:18:24;;;;;;;6.28;1.58;;;10.20;90.80;;;;;;5138197;27;20026;-70
2022/02/25 11:20:53;;;;;;;10.40;2.25;;;9.70;91.90;;;;;;5138744;27;20102;-70
2022/02/25 11:23:21;;;;;;;10.23;2.15;;;9.40;93.20;;;;;;5140452;27;20110;-70
2022/02/25 11:25:47;;;;;;;10.32;2.10;;;9.10;94.70;;;;;;5141011;27;20574;-69
2022/02/25 11:28:15;;;;;;;8.38;2.08;;;8.90;95.30;;;;;;5137069;27;20301;-70
2022/02/25 11:30:47;;;;;;;13.10;2.10;;;8.70;95.90;;;;;;5137537;27;20027;-71
2022/02/25 11:33:21;;;;;;;10.20;2.30;;;8.50;97.00;;;;;;5139579;27;20464;-70
2022/02/25 11:35:53;;;;;;;8.90;2.05;;;8.50;97.70;;;;;;5138636;27;20019;-70
2022/02/25 11:38:30;;;;;;;14.15;2.00;;;8.50;98.00;;;;;;5136489;27;20015;-70
2022/02/25 11:41:05;;;;;;;8.60;2.00;;;8.50;98.00;;;;;;5137519;27;20023;-69
2022/02/25 11:43:35;;;;;;;8.80;1.83;;;8.60;97.90;;;;;;5137398;27;20080;-70
2022/02/25 11:46:02;;;;;;;8.05;1.92;;;8.50;98.00;;;;;;5136026;27;20038;-69
2022/02/25 11:48:45;;;;;;;12.80;1.80;;;8.40;98.40;;;;;;5137643;27;20063;-68
2022/02/25 11:51:31;;;;;;;10.05;2.00;;;8.30;98.80;;;;;;5136796;27;20341;-69
2022/02/25 11:54:22;;;;;;;10.45;1.77;;;8.20;99.30;;;;;;5137008;27;20514;-68
2022/02/25 11:56:59;;;;;;;8.48;1.92;;;8.10;99.80;;;;;;5137005;27;20113;-68
2022/02/25 11:59:36;;;;;;;9.93;2.73;;;8.20;99.60;;;;;;5135509;27;20023;-67
2022/02/25 12:02:12;;;;;;;10.88;2.50;;;8.30;99.90;;;;;;5135399;27;20026;-68
2022/02/25 12:04:40;;;;;;;11.43;2.08;;;8.30;99.70;;;;;;5136726;27;20023;-69
2022/02/25 12:07:10;;;;;;;12.13;1.88;;;8.40;99.80;;;;;;5136598;27;20103;-68
2022/02/25 12:09:39;;;;;;;6.90;1.45;;;8.40;99.10;;;;;;5136441;27;20487;-68
2022/02/25 12:12:22;;;;;;;25.08;1.90;;;8.40;98.70;;;;;;5135312;27;20023;-71
2022/02/25 12:15:16;;;;;;;15.20;1.92;;;8.40;98.90;;;;;;5136409;27;20391;-70
2022/02/25 12:17:55;;;;;;;10.15;1.65;;;8.30;98.60;;;;;;5135200;27;20020;-72
2022/02/25 12:20:25;;;;;;;13.82;1.88;;;8.20;98.60;;;;;;5136338;27;20425;-72
2022/02/25 12:23:15;;;;;;;5.55;1.33;;;8.20;98.60;;;;;;5137061;27;20425;-70
2022/02/25 12:25:42;;;;;;;7.60;1.35;;;8.10;98.50;;;;;;5137336;27;20305;-70
2022/02/25 12:28:10;;;;;;;9.65;1.77;;;8.00;98.10;;;;;;5136677;27;20020;-70
2022/02/25 12:30:37;;;;;;;12.85;1.70;;;8.00;98.20;;;;;;5136048;27;20024;-70
2022/02/25 12:33:52;;;;;;;10.48;1.90;;;7.90;98.30;;;;;;5135995;27;20098;-71
2022/02/25 12:36:27;;;;;;;8.95;2.10;;;7.90;98.70;;;;;;5134856;27;20024;-71
2022/02/25 12:39:05;;;;;;;6.38;1.45;;;7.90;98.40;;;;;;5138360;27;20519;-69
2022/02/25 12:41:35;;;;;;;12.27;1.70;;;7.90;98.80;;;;;;5135846;27;20092;-69
2022/02/25 12:44:06;;;;;;;8.30;1.38;;;7.80;98.90;;;;;;5134574;27;20111;-69
2022/02/25 12:46:35;;;;;;;8.98;2.00;;;7.70;99.30;;;;;;5134450;27;20046;-68
2022/02/25 12:49:02;;;;;;;11.68;2.10;;;7.70;99.90;;;;;;5135802;27;20102;-69
2022/02/25 12:51:28;;;;;;;12.38;1.55;;;7.50;99.90;;;;;;5135408;27;20080;-69
2022/02/25 12:54:00;;;;;;;8.55;2.05;;;7.40;99.90;;;;;;5134047;27;20034;-67
2022/02/25 12:56:37;;;;;;;9.75;1.52;;;7.40;99.90;;;;;;5134888;27;20037;-68
2022/02/25 12:59:06;;;;;;;10.50;2.10;;;7.40;99.90;;;;;;5135563;27;20425;-70
2022/02/25 13:01:33;;;;;;;6.47;1.70;;;7.50;99.90;;;;;;5134952;27;20382;-70
2022/02/25 13:04:00;;;;;;;11.73;2.05;;;7.60;99.90;;;;;;5135343;27;20023;-70
2022/02/25 13:06:28;;;;;;;13.98;2.53;;;7.60;99.90;;;;;;5134024;27;20496;-70